Time;durP1;ratioP1;P1;durP2;ratioP2;P2;SDS_P1;SDS_P2;PMS_P1;PMS_P2;Temp;Humidity;BMP_temperature;BMP_pressure;BME280_temperature;BME280_humidity;BME280_pressure;Samples;Min_cycle;Max_cycle;Signal;HPM_P1;HPM_P2
2022/12/03 00:00:08;;;;;;;51.75;25.70;;;;;;;;;;4915056;29;20033;-75
2022/12/03 00:02:34;;;;;;;37.75;23.33;;;;;;;;;;4915029;29;20039;-76
2022/12/03 00:05:00;;;;;;;36.53;23.23;;;;;;;;;;4918304;28;20052;-75
2022/12/03 00:07:26;;;;;;;45.13;21.42;;;;;;;;;;4919002;29;20109;-75
2022/12/03 00:09:52;;;;;;;32.65;18.35;;;;;;;;;;4914505;29;20072;-75
2022/12/03 00:12:18;;;;;;;30.40;16.77;;;;;;;;;;4914754;29;20492;-76
2022/12/03 00:14:44;;;;;;;26.83;16.65;;;;;;;;;;4918209;28;20055;-74
2022/12/03 00:17:09;;;;;;;31.42;16.70;;;;;;;;;;4910644;29;20059;-74
2022/12/03 00:19:35;;;;;;;30.50;16.58;;;;;;;;;;4914316;29;20063;-74
2022/12/03 00:22:01;;;;;;;30.17;13.82;;;;;;;;;;4916065;29;20100;-74
2022/12/03 00:24:27;;;;;;;22.77;14.25;;;;;;;;;;4913533;29;20071;-74
2022/12/03 00:26:53;;;;;;;29.85;18.33;;;;;;;;;;4914181;29;20058;-76
2022/12/03 00:29:19;;;;;;;24.88;13.13;;;;;;;;;;4914407;29;20032;-74
2022/12/03 00:31:45;;;;;;;23.35;13.80;;;;;;;;;;4914253;29;20401;-74
2022/12/03 00:34:11;;;;;;;20.67;13.35;;;;;;;;;;4913543;29;20524;-74
2022/12/03 00:36:37;;;;;;;29.38;16.30;;;;;;;;;;4914637;29;20028;-74
2022/12/03 00:39:03;;;;;;;23.88;14.27;;;;;;;;;;4914324;29;20040;-74
2022/12/03 00:41:29;;;;;;;34.50;14.05;;;;;;;;;;4914823;29;20103;-74
2022/12/03 00:43:56;;;;;;;21.25;13.18;;;;;;;;;;4915018;29;20429;-74
2022/12/03 00:46:25;;;;;;;25.27;14.20;;;;;;;;;;4915079;29;20027;-74
2022/12/03 00:48:52;;;;;;;31.58;17.58;;;;;;;;;;4909222;29;20060;-74
2022/12/03 00:51:18;;;;;;;24.17;15.13;;;;;;;;;;4918226;29;20115;-74
2022/12/03 00:53:44;;;;;;;24.10;14.25;;;;;;;;;;4918871;29;20143;-74
2022/12/03 00:56:11;;;;;;;20.98;13.52;;;;;;;;;;4918410;29;20067;-73
2022/12/03 00:58:37;;;;;;;20.65;13.48;;;;;;;;;;4917319;29;20040;-73
2022/12/03 01:01:03;;;;;;;25.38;13.98;;;;;;;;;;4921811;28;20067;-74
2022/12/03 01:03:29;;;;;;;22.70;14.95;;;;;;;;;;4915999;29;20026;-74
2022/12/03 01:05:55;;;;;;;22.08;14.23;;;;;;;;;;4918102;29;20494;-73
2022/12/03 01:08:20;;;;;;;27.27;16.77;;;;;;;;;;4918157;29;20027;-73
2022/12/03 01:10:46;;;;;;;25.55;15.98;;;;;;;;;;4918628;29;20040;-73
2022/12/03 01:13:12;;;;;;;24.65;15.32;;;;;;;;;;4917887;29;20028;-74
2022/12/03 01:15:38;;;;;;;27.80;16.85;;;;;;;;;;4917223;29;20493;-73
2022/12/03 01:18:04;;;;;;;24.80;15.75;;;;;;;;;;4918252;29;20024;-74
2022/12/03 01:20:30;;;;;;;21.45;14.18;;;;;;;;;;4916892;29;20077;-74
2022/12/03 01:22:56;;;;;;;21.58;14.05;;;;;;;;;;4917427;29;20055;-74
2022/12/03 01:25:22;;;;;;;21.52;13.52;;;;;;;;;;4913882;29;20108;-73
2022/12/03 01:27:49;;;;;;;17.90;12.20;;;;;;;;;;4915594;29;20409;-74
2022/12/03 01:30:15;;;;;;;22.25;13.35;;;;;;;;;;4915099;29;20032;-74
2022/12/03 01:32:41;;;;;;;21.60;13.45;;;;;;;;;;4931558;29;20183;-75
2022/12/03 01:35:07;;;;;;;20.90;12.52;;;;;;;;;;4915965;29;20036;-74
2022/12/03 01:37:33;;;;;;;19.80;12.05;;;;;;;;;;4916213;29;20040;-75
2022/12/03 01:39:59;;;;;;;22.08;13.43;;;;;;;;;;4916340;29;20119;-74
2022/12/03 01:42:38;;;;;;;19.00;13.23;;;;;;;;;;4917453;29;20043;-74
2022/12/03 01:45:05;;;;;;;21.67;12.68;;;;;;;;;;4917022;29;20032;-74
2022/12/03 01:47:34;;;;;;;21.45;13.25;;;;;;;;;;4918064;29;20127;-74
2022/12/03 01:50:29;;;;;;;22.35;14.45;;;;;;;;;;4924107;29;20043;-74
2022/12/03 01:52:59;;;;;;;23.70;14.38;;;;;;;;;;4917413;29;20032;-73
2022/12/03 01:55:25;;;;;;;20.88;14.50;;;;;;;;;;4916436;29;20552;-73
2022/12/03 01:57:54;;;;;;;23.55;13.85;;;;;;;;;;4916931;29;20028;-74
2022/12/03 02:00:27;;;;;;;19.77;13.60;;;;;;;;;;4911929;29;20039;-73
2022/12/03 02:03:00;;;;;;;25.38;13.77;;;;;;;;;;4930406;29;20141;-73
2022/12/03 02:05:28;;;;;;;23.08;13.90;;;;;;;;;;4924235;29;20150;-74
2022/12/03 02:07:55;;;;;;;20.50;12.68;;;;;;;;;;4929619;29;20183;-74
2022/12/03 02:10:30;;;;;;;22.17;12.38;;;;;;;;;;4932294;29;20060;-75
2022/12/03 02:13:07;;;;;;;22.00;13.68;;;;;;;;;;4925390;29;20450;-74
2022/12/03 02:15:34;;;;;;;16.05;11.70;;;;;;;;;;4917392;29;20042;-74
2022/12/03 02:18:00;;;;;;;19.48;11.60;;;;;;;;;;4917280;29;20062;-74
2022/12/03 02:20:26;;;;;;;22.30;13.48;;;;;;;;;;4916135;29;20385;-74
2022/12/03 02:22:52;;;;;;;22.35;12.55;;;;;;;;;;4899748;29;20034;-74
2022/12/03 02:25:24;;;;;;;20.30;11.98;;;;;;;;;;4915927;29;20032;-74
2022/12/03 02:27:52;;;;;;;18.02;11.27;;;;;;;;;;4909491;29;20036;-74
2022/12/03 02:30:22;;;;;;;16.80;11.43;;;;;;;;;;4916072;28;20401;-73
2022/12/03 02:32:49;;;;;;;20.10;12.15;;;;;;;;;;4916321;29;20044;-73
2022/12/03 02:35:18;;;;;;;19.88;13.18;;;;;;;;;;4916555;29;20055;-74
2022/12/03 02:37:45;;;;;;;23.35;12.70;;;;;;;;;;4916640;29;20063;-74
2022/12/03 02:40:23;;;;;;;30.23;14.57;;;;;;;;;;4916782;29;20040;-73
2022/12/03 02:42:52;;;;;;;24.08;13.40;;;;;;;;;;4916793;29;20066;-74
2022/12/03 02:45:22;;;;;;;29.60;14.75;;;;;;;;;;4918842;29;20051;-73
2022/12/03 02:47:57;;;;;;;27.92;14.75;;;;;;;;;;4917181;29;20048;-74
2022/12/03 02:50:30;;;;;;;26.00;12.68;;;;;;;;;;4898534;28;20119;-74
2022/12/03 02:52:59;;;;;;;22.42;12.40;;;;;;;;;;4926348;29;20036;-74
2022/12/03 02:55:26;;;;;;;25.77;14.38;;;;;;;;;;4916597;29;20028;-73
2022/12/03 02:57:52;;;;;;;18.80;12.48;;;;;;;;;;4911022;29;20035;-74
2022/12/03 03:00:19;;;;;;;22.92;13.80;;;;;;;;;;4913689;29;20051;-74
2022/12/03 03:02:46;;;;;;;27.48;14.98;;;;;;;;;;4914875;29;20229;-74
2022/12/03 03:05:14;;;;;;;22.40;14.48;;;;;;;;;;4916179;29;20043;-73
2022/12/03 03:07:41;;;;;;;21.23;12.55;;;;;;;;;;4915219;29;20028;-73
2022/12/03 03:10:10;;;;;;;19.40;11.88;;;;;;;;;;4912612;28;20079;-73
2022/12/03 03:12:36;;;;;;;19.98;12.98;;;;;;;;;;4910494;29;20056;-74
2022/12/03 03:15:03;;;;;;;21.73;12.80;;;;;;;;;;4915709;29;20036;-75
2022/12/03 03:17:29;;;;;;;17.80;11.25;;;;;;;;;;4916001;29;20036;-74
2022/12/03 03:19:55;;;;;;;16.67;11.43;;;;;;;;;;4901117;29;20398;-73
2022/12/03 03:22:30;;;;;;;14.68;9.93;;;;;;;;;;4911216;29;20037;-73
2022/12/03 03:24:56;;;;;;;17.13;10.65;;;;;;;;;;4896980;29;20036;-74
2022/12/03 03:27:22;;;;;;;19.55;11.35;;;;;;;;;;4897659;29;20057;-74
2022/12/03 03:29:48;;;;;;;17.55;11.18;;;;;;;;;;4897525;29;20056;-73
2022/12/03 03:32:14;;;;;;;16.55;11.05;;;;;;;;;;4897337;29;20043;-74
2022/12/03 03:34:40;;;;;;;16.40;11.40;;;;;;;;;;4897436;29;20032;-74
2022/12/03 03:37:06;;;;;;;15.30;11.02;;;;;;;;;;4911505;29;20041;-74
2022/12/03 03:39:32;;;;;;;14.35;10.38;;;;;;;;;;4897082;29;20375;-73
2022/12/03 03:41:58;;;;;;;16.75;11.32;;;;;;;;;;4896300;29;20379;-74
2022/12/03 03:44:24;;;;;;;16.25;11.10;;;;;;;;;;4897041;29;20037;-74
2022/12/03 03:46:49;;;;;;;18.38;11.60;;;;;;;;;;4897344;29;20028;-74
2022/12/03 03:49:16;;;;;;;17.65;11.65;;;;;;;;;;4898232;29;20059;-76
2022/12/03 03:51:43;;;;;;;18.60;12.55;;;;;;;;;;4896855;29;20039;-73
2022/12/03 03:54:09;;;;;;;21.25;13.90;;;;;;;;;;4896859;29;20123;-74
2022/12/03 03:56:35;;;;;;;19.05;12.85;;;;;;;;;;4896878;29;20111;-74
2022/12/03 03:59:02;;;;;;;19.88;13.52;;;;;;;;;;4895838;29;20036;-74
2022/12/03 04:01:28;;;;;;;22.67;13.25;;;;;;;;;;4898839;29;20394;-74
2022/12/03 04:03:55;;;;;;;21.08;13.48;;;;;;;;;;4913832;29;20040;-74
2022/12/03 04:06:21;;;;;;;20.75;13.30;;;;;;;;;;4915472;29;20044;-74
2022/12/03 04:08:47;;;;;;;23.65;13.18;;;;;;;;;;4916199;29;20039;-74
2022/12/03 04:13:58;;;;;;;21.90;13.30;;;;;;;;;;4915188;29;20533;-74
2022/12/03 04:16:24;;;;;;;21.95;13.82;;;;;;;;;;4914577;29;20040;-74
2022/12/03 04:18:49;;;;;;;22.98;13.40;;;;;;;;;;4915479;29;20482;-75
2022/12/03 04:24:05;;;;;;;21.88;13.10;;;;;;;;;;4915810;29;20036;-73
2022/12/03 04:29:18;;;;;;;24.98;13.43;;;;;;;;;;4913385;29;20087;-73
2022/12/03 04:37:14;;;;;;;18.48;12.35;;;;;;;;;;4914126;29;20044;-74
2022/12/03 04:39:40;;;;;;;23.13;12.30;;;;;;;;;;4914990;29;20026;-74
2022/12/03 04:42:07;;;;;;;20.35;12.30;;;;;;;;;;4915583;29;20036;-74
2022/12/03 04:44:36;;;;;;;23.38;12.73;;;;;;;;;;4915407;29;20030;-74
2022/12/03 04:47:10;;;;;;;23.80;13.15;;;;;;;;;;4914897;29;20083;-74
2022/12/03 04:49:39;;;;;;;23.20;13.68;;;;;;;;;;4915120;29;20108;-76
2022/12/03 04:52:07;;;;;;;28.35;14.13;;;;;;;;;;4915852;29;20044;-74
2022/12/03 04:54:34;;;;;;;29.67;15.07;;;;;;;;;;4915369;29;20040;-74
2022/12/03 04:57:00;;;;;;;30.02;15.55;;;;;;;;;;4915551;29;20470;-74
2022/12/03 04:59:28;;;;;;;28.38;16.25;;;;;;;;;;4915393;29;20117;-74
2022/12/03 05:01:53;;;;;;;33.05;16.42;;;;;;;;;;4915432;29;20450;-74
2022/12/03 05:04:19;;;;;;;35.28;15.82;;;;;;;;;;4915028;29;20036;-74
2022/12/03 05:06:45;;;;;;;28.42;17.08;;;;;;;;;;4928717;29;20032;-74
2022/12/03 05:09:12;;;;;;;32.80;17.92;;;;;;;;;;4915086;29;20506;-74
2022/12/03 05:11:39;;;;;;;36.67;18.63;;;;;;;;;;4929360;29;20056;-74
2022/12/03 05:14:05;;;;;;;35.50;17.23;;;;;;;;;;4916582;29;20150;-74
2022/12/03 05:16:31;;;;;;;35.00;18.25;;;;;;;;;;4916540;29;20039;-74
2022/12/03 05:18:59;;;;;;;33.88;18.70;;;;;;;;;;4913900;29;20040;-74
2022/12/03 05:21:25;;;;;;;34.58;17.38;;;;;;;;;;4914854;29;20066;-74
2022/12/03 05:23:51;;;;;;;45.97;18.35;;;;;;;;;;4914812;29;20024;-74
2022/12/03 05:26:17;;;;;;;33.72;17.40;;;;;;;;;;4914767;29;20565;-74
2022/12/03 05:28:43;;;;;;;38.33;15.90;;;;;;;;;;4915214;29;20031;-74
2022/12/03 05:31:09;;;;;;;33.92;18.20;;;;;;;;;;4916358;29;20047;-74
2022/12/03 05:33:35;;;;;;;43.08;16.38;;;;;;;;;;4917985;29;20028;-76
2022/12/03 05:36:03;;;;;;;55.42;20.55;;;;;;;;;;4918424;29;20046;-74
2022/12/03 05:38:28;;;;;;;42.05;17.67;;;;;;;;;;4918482;29;20066;-74
2022/12/03 05:40:55;;;;;;;27.85;15.57;;;;;;;;;;4917769;29;20024;-75
2022/12/03 05:43:20;;;;;;;31.52;19.15;;;;;;;;;;4916034;29;20043;-76
2022/12/03 05:45:46;;;;;;;31.08;18.67;;;;;;;;;;4917373;29;20107;-74
2022/12/03 05:48:14;;;;;;;31.98;18.27;;;;;;;;;;4916025;29;20052;-73
2022/12/03 05:50:45;;;;;;;53.92;25.42;;;;;;;;;;4917342;29;20095;-74
2022/12/03 05:53:14;;;;;;;;;;;;;;;;;;4917848;29;20394;-74
2022/12/03 05:55:40;;;;;;;32.78;20.00;;;;;;;;;;4916069;29;19911;-74
2022/12/03 05:58:07;;;;;;;33.08;17.05;;;;;;;;;;4917862;29;20422;-73
2022/12/03 06:00:37;;;;;;;24.38;15.55;;;;;;;;;;4917618;29;20628;-74
2022/12/03 06:03:06;;;;;;;38.13;19.85;;;;;;;;;;4917656;29;20063;-74
2022/12/03 06:05:33;;;;;;;24.48;16.08;;;;;;;;;;4916613;29;20453;-73
2022/12/03 06:08:00;;;;;;;23.48;15.27;;;;;;;;;;4898752;29;20036;-74
2022/12/03 06:10:27;;;;;;;32.17;15.55;;;;;;;;;;4898845;29;20060;-74
2022/12/03 06:12:53;;;;;;;25.55;14.40;;;;;;;;;;4898355;29;20067;-74
2022/12/03 06:15:19;;;;;;;22.85;14.95;;;;;;;;;;4904009;29;20052;-74
2022/12/03 06:17:46;;;;;;;23.80;15.48;;;;;;;;;;4915858;29;20058;-75
2022/12/03 06:20:14;;;;;;;26.50;16.92;;;;;;;;;;4916870;29;20039;-74
2022/12/03 06:22:40;;;;;;;25.63;16.50;;;;;;;;;;4915487;29;20103;-75
2022/12/03 06:25:06;;;;;;;24.17;16.00;;;;;;;;;;4916049;29;20044;-73
2022/12/03 06:27:32;;;;;;;27.33;17.27;;;;;;;;;;4915901;29;20047;-72
2022/12/03 06:29:58;;;;;;;33.45;18.98;;;;;;;;;;4917482;29;20028;-73
2022/12/03 06:32:24;;;;;;;31.33;20.67;;;;;;;;;;4918358;29;20032;-74
2022/12/03 06:34:50;;;;;;;34.63;20.85;;;;;;;;;;4920782;29;20405;-72
2022/12/03 06:37:16;;;;;;;28.02;17.83;;;;;;;;;;4931453;29;20099;-74
2022/12/03 06:39:42;;;;;;;29.02;17.52;;;;;;;;;;4916724;29;20110;-75
2022/12/03 06:42:08;;;;;;;25.02;17.50;;;;;;;;;;4916580;29;20040;-74
2022/12/03 06:44:33;;;;;;;33.90;18.83;;;;;;;;;;4913757;29;20035;-74
2022/12/03 06:46:59;;;;;;;50.78;21.23;;;;;;;;;;4917342;29;20186;-73
2022/12/03 06:49:26;;;;;;;44.70;22.58;;;;;;;;;;4931687;29;20453;-73
2022/12/03 06:51:54;;;;;;;38.10;21.90;;;;;;;;;;4928961;29;20131;-73
2022/12/03 06:54:20;;;;;;;35.03;20.52;;;;;;;;;;4917201;29;20040;-73
2022/12/03 06:56:46;;;;;;;41.10;22.83;;;;;;;;;;4916133;29;20115;-74
2022/12/03 06:59:12;;;;;;;42.38;21.05;;;;;;;;;;4898450;29;20037;-74
2022/12/03 07:01:38;;;;;;;53.25;20.88;;;;;;;;;;4898196;29;20051;-73
2022/12/03 07:04:05;;;;;;;40.95;20.52;;;;;;;;;;4898136;29;20491;-73
2022/12/03 07:06:30;;;;;;;43.38;20.65;;;;;;;;;;4897070;29;20478;-73
2022/12/03 07:08:56;;;;;;;30.65;19.40;;;;;;;;;;4910153;29;20047;-73
2022/12/03 07:11:31;;;;;;;36.38;19.20;;;;;;;;;;4914532;29;20058;-74
2022/12/03 07:13:59;;;;;;;36.50;19.20;;;;;;;;;;4915776;29;20068;-75
2022/12/03 07:16:25;;;;;;;38.33;18.38;;;;;;;;;;4917017;29;20028;-74
2022/12/03 07:18:52;;;;;;;40.72;21.88;;;;;;;;;;4915712;29;20391;-74
2022/12/03 07:21:18;;;;;;;27.65;18.17;;;;;;;;;;4915316;29;20039;-74
2022/12/03 07:23:44;;;;;;;59.50;18.25;;;;;;;;;;4903979;29;20021;-74
2022/12/03 07:26:10;;;;;;;27.98;17.52;;;;;;;;;;4897535;29;20076;-74
2022/12/03 07:28:36;;;;;;;25.40;14.77;;;;;;;;;;4897750;29;20029;-74
2022/12/03 07:31:01;;;;;;;23.38;14.93;;;;;;;;;;4916370;29;20556;-73
2022/12/03 07:33:28;;;;;;;26.73;14.93;;;;;;;;;;4917291;29;20035;-75
2022/12/03 07:35:56;;;;;;;19.63;13.23;;;;;;;;;;4907158;29;20046;-78
2022/12/03 07:38:23;;;;;;;20.20;12.70;;;;;;;;;;4897862;29;20028;-76
2022/12/03 07:40:50;;;;;;;17.80;11.77;;;;;;;;;;4897717;29;20028;-75
2022/12/03 07:43:16;;;;;;;19.17;12.55;;;;;;;;;;4898166;29;20021;-78
2022/12/03 07:45:42;;;;;;;24.33;15.40;;;;;;;;;;4906664;29;20047;-79
2022/12/03 07:48:08;;;;;;;28.20;15.13;;;;;;;;;;4911811;29;20578;-78
2022/12/03 07:50:34;;;;;;;25.40;15.98;;;;;;;;;;4898251;29;20039;-78
2022/12/03 07:53:00;;;;;;;26.55;16.67;;;;;;;;;;4899740;29;20051;-77
2022/12/03 07:55:26;;;;;;;26.02;15.80;;;;;;;;;;4915039;29;20139;-77
2022/12/03 07:57:52;;;;;;;30.15;17.50;;;;;;;;;;4912095;29;20044;-76
2022/12/03 08:00:18;;;;;;;24.15;15.82;;;;;;;;;;4897586;29;20108;-75
2022/12/03 08:02:45;;;;;;;24.83;14.43;;;;;;;;;;4915665;29;20036;-75
2022/12/03 08:05:11;;;;;;;26.60;14.27;;;;;;;;;;4915966;29;20096;-74
2022/12/03 08:07:37;;;;;;;24.50;15.43;;;;;;;;;;4916055;29;20028;-75
2022/12/03 08:10:04;;;;;;;31.40;16.45;;;;;;;;;;4915910;29;20478;-76
2022/12/03 08:12:41;;;;;;;27.48;15.88;;;;;;;;;;4914871;29;20405;-75
2022/12/03 08:15:24;;;;;;;25.33;14.13;;;;;;;;;;4898647;29;20280;-74
2022/12/03 08:17:58;;;;;;;23.38;15.23;;;;;;;;;;4895890;29;20509;-74
2022/12/03 08:20:27;;;;;;;36.63;15.32;;;;;;;;;;4911061;29;20379;-73
2022/12/03 08:22:54;;;;;;;27.00;13.32;;;;;;;;;;4900235;29;20111;-73
2022/12/03 08:25:30;;;;;;;22.00;12.88;;;;;;;;;;4930257;29;20126;-74
2022/12/03 08:28:15;;;;;;;23.48;13.00;;;;;;;;;;4916582;29;20031;-74
2022/12/03 08:31:05;;;;;;;26.80;15.50;;;;;;;;;;4913782;29;20076;-73
2022/12/03 08:33:34;;;;;;;32.17;15.10;;;;;;;;;;4916261;29;20124;-73
2022/12/03 08:36:07;;;;;;;21.63;13.88;;;;;;;;;;4916017;29;20036;-74
2022/12/03 08:38:33;;;;;;;22.45;13.85;;;;;;;;;;4914290;29;20044;-73
2022/12/03 08:40:59;;;;;;;22.73;14.10;;;;;;;;;;4896885;29;20033;-73
2022/12/03 08:43:29;;;;;;;24.35;13.15;;;;;;;;;;4910934;29;20036;-75
2022/12/03 08:45:56;;;;;;;27.10;15.43;;;;;;;;;;4896806;29;20025;-74
2022/12/03 08:48:37;;;;;;;36.95;14.57;;;;;;;;;;4910879;29;20057;-73
2022/12/03 08:51:22;;;;;;;29.67;14.32;;;;;;;;;;4896746;29;20047;-73
2022/12/03 08:53:51;;;;;;;28.20;15.15;;;;;;;;;;4895850;29;20501;-73
2022/12/03 08:56:25;;;;;;;34.35;15.13;;;;;;;;;;4896159;29;20482;-73
2022/12/03 08:58:54;;;;;;;22.73;14.30;;;;;;;;;;4896446;29;20469;-74
2022/12/03 09:01:29;;;;;;;23.55;14.95;;;;;;;;;;4896976;29;20756;-73
2022/12/03 09:04:15;;;;;;;25.80;15.60;;;;;;;;;;4897437;29;20127;-73
2022/12/03 09:06:41;;;;;;;28.65;14.32;;;;;;;;;;4919262;29;20036;-74
2022/12/03 09:09:07;;;;;;;23.90;14.25;;;;;;;;;;4919138;29;20038;-73
2022/12/03 09:11:33;;;;;;;25.33;14.23;;;;;;;;;;4919383;29;20119;-73
2022/12/03 09:13:58;;;;;;;28.02;15.18;;;;;;;;;;4919915;29;20020;-75
2022/12/03 09:16:26;;;;;;;29.83;15.73;;;;;;;;;;4919604;29;20063;-75
2022/12/03 09:18:52;;;;;;;30.45;18.50;;;;;;;;;;4918756;29;20099;-74
2022/12/03 09:21:18;;;;;;;29.20;17.52;;;;;;;;;;4915343;29;20064;-75
2022/12/03 09:23:44;;;;;;;39.38;17.85;;;;;;;;;;4918601;29;20039;-74
2022/12/03 09:26:10;;;;;;;27.52;17.25;;;;;;;;;;4917368;29;20024;-76
2022/12/03 09:28:37;;;;;;;27.48;16.75;;;;;;;;;;4919186;29;20044;-75
2022/12/03 09:31:03;;;;;;;38.28;15.88;;;;;;;;;;4919614;29;20174;-75
2022/12/03 09:33:31;;;;;;;25.52;14.98;;;;;;;;;;4914186;29;20059;-75
2022/12/03 09:35:58;;;;;;;21.83;14.93;;;;;;;;;;4914699;29;20084;-76
2022/12/03 09:38:24;;;;;;;25.52;14.18;;;;;;;;;;4918804;29;20036;-76
2022/12/03 09:40:50;;;;;;;26.00;14.00;;;;;;;;;;4917352;29;20038;-75
2022/12/03 09:43:17;;;;;;;25.23;14.32;;;;;;;;;;4915073;29;20016;-75
2022/12/03 09:45:44;;;;;;;39.53;15.30;;;;;;;;;;4917332;29;20067;-75
2022/12/03 09:48:14;;;;;;;17.08;10.85;;;;;;;;;;4917168;29;20099;-76
2022/12/03 09:50:41;;;;;;;23.30;10.85;;;;;;;;;;4916486;29;20082;-77
2022/12/03 09:53:16;;;;;;;22.63;11.93;;;;;;;;;;4918047;29;20123;-76
2022/12/03 09:55:44;;;;;;;20.92;10.43;;;;;;;;;;4921132;29;20042;-76
2022/12/03 09:58:13;;;;;;;15.18;9.48;;;;;;;;;;4929368;29;20040;-74
2022/12/03 10:00:41;;;;;;;20.77;11.57;;;;;;;;;;4926199;29;20115;-76
2022/12/03 10:03:11;;;;;;;14.00;9.77;;;;;;;;;;4914515;29;20032;-77
2022/12/03 10:05:37;;;;;;;21.25;11.23;;;;;;;;;;4913959;29;20033;-77
2022/12/03 10:08:07;;;;;;;17.13;10.80;;;;;;;;;;4915241;29;20032;-75
2022/12/03 10:10:35;;;;;;;15.60;9.90;;;;;;;;;;4916336;29;20058;-76
2022/12/03 10:13:02;;;;;;;15.30;10.18;;;;;;;;;;4915579;29;20032;-75
2022/12/03 10:15:28;;;;;;;16.73;10.32;;;;;;;;;;4916854;29;20028;-77
2022/12/03 10:17:54;;;;;;;16.77;9.20;;;;;;;;;;4917251;29;20139;-76
2022/12/03 10:20:22;;;;;;;17.23;8.93;;;;;;;;;;4914292;29;20608;-75
2022/12/03 10:22:48;;;;;;;16.10;8.80;;;;;;;;;;4899423;29;20064;-75
2022/12/03 10:25:24;;;;;;;13.38;7.38;;;;;;;;;;4899333;29;20029;-73
2022/12/03 10:28:08;;;;;;;11.63;7.90;;;;;;;;;;4899484;29;20041;-75
2022/12/03 10:30:34;;;;;;;9.90;6.78;;;;;;;;;;4901524;29;20037;-77
2022/12/03 10:33:12;;;;;;;9.30;6.88;;;;;;;;;;4923148;29;20039;-78
2022/12/03 10:35:40;;;;;;;10.38;7.10;;;;;;;;;;4905958;29;20105;-76
2022/12/03 10:38:18;;;;;;;11.75;7.40;;;;;;;;;;4906458;29;20025;-76
2022/12/03 10:40:45;;;;;;;9.70;6.60;;;;;;;;;;4902812;29;20044;-77
2022/12/03 10:43:23;;;;;;;9.13;5.88;;;;;;;;;;4898200;29;20036;-76
2022/12/03 10:46:10;;;;;;;11.23;7.10;;;;;;;;;;4897002;29;20047;-76
2022/12/03 10:48:37;;;;;;;11.65;7.20;;;;;;;;;;4899258;29;20071;-78
2022/12/03 10:51:23;;;;;;;11.75;7.50;;;;;;;;;;4898913;29;20087;-76
2022/12/03 10:53:49;;;;;;;11.02;6.90;;;;;;;;;;4898734;29;20550;-77
2022/12/03 10:56:33;;;;;;;11.45;7.28;;;;;;;;;;4897433;29;20033;-76
2022/12/03 10:58:59;;;;;;;15.02;7.72;;;;;;;;;;4904411;29;20036;-75
2022/12/03 11:01:25;;;;;;;10.73;7.43;;;;;;;;;;4917715;29;20028;-76
2022/12/03 11:03:52;;;;;;;14.45;8.05;;;;;;;;;;4916964;29;20095;-75
2022/12/03 11:06:20;;;;;;;10.65;7.95;;;;;;;;;;4915519;29;20119;-76
2022/12/03 11:08:53;;;;;;;11.45;8.35;;;;;;;;;;4918172;29;20065;-76
2022/12/03 11:11:23;;;;;;;13.50;8.27;;;;;;;;;;4913560;29;20037;-76
2022/12/03 11:13:58;;;;;;;12.23;7.95;;;;;;;;;;4917559;29;20028;-77
2022/12/03 11:16:59;;;;;;;13.68;8.40;;;;;;;;;;4899944;29;20104;-77
2022/12/03 11:19:36;;;;;;;12.38;7.68;;;;;;;;;;4915410;29;20048;-76
2022/12/03 11:22:05;;;;;;;14.82;8.50;;;;;;;;;;4917162;29;20056;-76
2022/12/03 11:24:35;;;;;;;22.35;9.77;;;;;;;;;;4916655;29;20047;-75
2022/12/03 11:27:01;;;;;;;13.30;8.48;;;;;;;;;;4915882;29;20036;-77
2022/12/03 11:29:59;;;;;;;11.43;8.32;;;;;;;;;;4917033;29;20055;-76
2022/12/03 11:32:37;;;;;;;17.52;8.77;;;;;;;;;;4916662;29;20095;-76
2022/12/03 11:35:12;;;;;;;15.30;9.27;;;;;;;;;;4916932;29;20051;-76
2022/12/03 11:37:39;;;;;;;15.50;9.20;;;;;;;;;;4917026;29;20048;-77
2022/12/03 11:40:20;;;;;;;18.45;10.25;;;;;;;;;;4916880;29;20024;-76
2022/12/03 11:42:47;;;;;;;15.85;8.70;;;;;;;;;;4916504;29;20068;-77
2022/12/03 11:45:20;;;;;;;14.27;8.68;;;;;;;;;;4916874;29;20079;-78
2022/12/03 11:48:00;;;;;;;;;;;;;;;;;;4915366;29;20386;-75
2022/12/03 11:50:29;;;;;;;14.13;9.63;;;;;;;;;;4904309;29;19922;-75
2022/12/03 11:53:07;;;;;;;13.45;8.95;;;;;;;;;;4927296;29;20044;-76
2022/12/03 11:55:43;;;;;;;19.70;9.70;;;;;;;;;;4913366;29;20120;-76
2022/12/03 11:58:16;;;;;;;12.93;9.48;;;;;;;;;;4916558;29;20127;-76
2022/12/03 12:00:54;;;;;;;14.63;8.38;;;;;;;;;;4913107;29;20032;-75
2022/12/03 12:03:29;;;;;;;14.02;9.82;;;;;;;;;;4896840;29;20044;-75
2022/12/03 12:06:09;;;;;;;13.25;9.80;;;;;;;;;;4899067;29;20119;-75
2022/12/03 12:08:58;;;;;;;13.40;9.55;;;;;;;;;;4911791;29;20039;-76
2022/12/03 12:11:40;;;;;;;12.13;8.40;;;;;;;;;;4926435;29;20539;-78
2022/12/03 12:14:06;;;;;;;12.50;7.32;;;;;;;;;;4933781;29;20058;-73
2022/12/03 12:16:49;;;;;;;13.15;8.38;;;;;;;;;;4897256;29;20043;-76
2022/12/03 12:19:40;;;;;;;11.02;7.22;;;;;;;;;;4896408;29;20035;-77
2022/12/03 12:22:28;;;;;;;13.27;8.63;;;;;;;;;;4895921;29;20037;-78
2022/12/03 12:24:57;;;;;;;10.07;7.47;;;;;;;;;;4899037;29;20498;-79
2022/12/03 12:27:48;;;;;;;13.80;8.30;;;;;;;;;;4927807;29;20486;-75
2022/12/03 12:30:17;;;;;;;12.70;8.10;;;;;;;;;;4931534;29;20405;-78
2022/12/03 12:32:51;;;;;;;13.68;7.75;;;;;;;;;;4912220;29;20032;-80
2022/12/03 12:35:21;;;;;;;13.50;7.82;;;;;;;;;;4917781;29;20040;-77
2022/12/03 12:37:55;;;;;;;11.02;6.97;;;;;;;;;;4932275;29;20080;-77
2022/12/03 12:40:25;;;;;;;15.60;8.57;;;;;;;;;;4931870;29;20055;-76
2022/12/03 12:43:17;;;;;;;21.65;12.10;;;;;;;;;;4919061;29;20032;-76
2022/12/03 12:45:44;;;;;;;13.90;8.60;;;;;;;;;;4915252;29;20490;-76
2022/12/03 12:48:27;;;;;;;13.43;9.32;;;;;;;;;;4919949;29;20099;-76
2022/12/03 12:51:12;;;;;;;77.25;41.88;;;;;;;;;;4918500;29;20051;-75
2022/12/03 12:53:41;;;;;;;17.33;11.05;;;;;;;;;;4916527;29;20525;-76
2022/12/03 12:56:14;;;;;;;30.13;15.75;;;;;;;;;;4915327;29;20032;-76
2022/12/03 12:58:41;;;;;;;14.38;9.10;;;;;;;;;;4920235;29;20389;-77
2022/12/03 13:01:15;;;;;;;16.33;10.02;;;;;;;;;;4938791;29;20034;-77
2022/12/03 13:03:41;;;;;;;17.15;10.25;;;;;;;;;;4932313;29;20034;-77
2022/12/03 13:06:15;;;;;;;10.45;7.20;;;;;;;;;;4905899;29;20421;-77
2022/12/03 13:08:47;;;;;;;11.77;8.30;;;;;;;;;;4917844;29;20099;-78
2022/12/03 13:11:30;;;;;;;12.40;9.02;;;;;;;;;;4928655;29;20028;-79
2022/12/03 13:13:56;;;;;;;15.23;8.55;;;;;;;;;;4920389;29;20036;-76
2022/12/03 13:16:29;;;;;;;12.30;8.57;;;;;;;;;;4917611;29;20036;-77
2022/12/03 13:19:00;;;;;;;12.07;8.45;;;;;;;;;;4909476;29;20182;-77
2022/12/03 13:21:40;;;;;;;16.88;8.80;;;;;;;;;;4900158;29;20046;-76
2022/12/03 13:24:49;;;;;;;14.93;9.57;;;;;;;;;;4900133;29;20080;-77
2022/12/03 13:27:16;;;;;;;18.30;10.30;;;;;;;;;;4929339;29;20050;-77
2022/12/03 13:29:48;;;;;;;16.27;10.30;;;;;;;;;;4939062;29;20106;-75
2022/12/03 13:32:30;;;;;;;16.60;10.05;;;;;;;;;;4909676;29;20033;-77
2022/12/03 13:35:22;;;;;;;15.68;10.50;;;;;;;;;;4899844;29;20147;-77
2022/12/03 13:37:48;;;;;;;15.35;10.68;;;;;;;;;;4916814;29;20394;-77
2022/12/03 13:40:23;;;;;;;14.40;9.10;;;;;;;;;;4916840;29;20032;-77
2022/12/03 13:42:49;;;;;;;13.80;9.30;;;;;;;;;;4916739;29;20071;-77
2022/12/03 13:45:15;;;;;;;13.60;8.55;;;;;;;;;;4927813;29;20441;-77
2022/12/03 13:47:42;;;;;;;9.15;6.50;;;;;;;;;;4924144;29;20048;-76
2022/12/03 13:50:36;;;;;;;14.13;7.95;;;;;;;;;;4916571;29;20044;-76
2022/12/03 13:53:23;;;;;;;10.43;6.00;;;;;;;;;;4916722;29;20061;-76
2022/12/03 13:56:17;;;;;;;8.25;4.72;;;;;;;;;;4915874;29;20032;-77
2022/12/03 13:58:43;;;;;;;6.90;4.43;;;;;;;;;;4917047;29;20497;-77
2022/12/03 14:01:09;;;;;;;5.85;4.30;;;;;;;;;;4918687;29;20035;-77
2022/12/03 14:03:35;;;;;;;6.30;4.40;;;;;;;;;;4918310;29;20051;-77
2022/12/03 14:06:01;;;;;;;7.25;3.97;;;;;;;;;;4930140;29;20059;-78
2022/12/03 14:08:26;;;;;;;7.20;5.28;;;;;;;;;;4917773;29;20027;-76
2022/12/03 14:10:52;;;;;;;6.65;4.05;;;;;;;;;;4913545;29;20032;-76
2022/12/03 14:13:18;;;;;;;15.00;4.90;;;;;;;;;;4916877;29;20119;-75
2022/12/03 14:15:44;;;;;;;10.80;4.15;;;;;;;;;;4914023;29;20028;-76
2022/12/03 14:18:10;;;;;;;7.18;4.07;;;;;;;;;;4918199;29;20067;-78
2022/12/03 14:20:36;;;;;;;4.68;2.40;;;;;;;;;;4911218;29;20058;-78
2022/12/03 14:23:01;;;;;;;2.47;1.60;;;;;;;;;;4917575;29;20450;-77
2022/12/03 14:25:27;;;;;;;3.67;2.20;;;;;;;;;;4918032;29;20143;-76
2022/12/03 14:27:53;;;;;;;3.13;2.20;;;;;;;;;;4921463;29;20032;-77
2022/12/03 14:30:21;;;;;;;4.13;2.38;;;;;;;;;;4936214;29;20032;-77
2022/12/03 14:32:47;;;;;;;3.30;2.25;;;;;;;;;;4919495;29;20027;-78
2022/12/03 14:35:13;;;;;;;5.15;3.40;;;;;;;;;;4919836;29;20055;-77
2022/12/03 14:37:39;;;;;;;7.00;3.60;;;;;;;;;;4917075;29;20465;-77
2022/12/03 14:40:07;;;;;;;4.50;2.47;;;;;;;;;;4916526;29;20043;-76
2022/12/03 14:42:35;;;;;;;4.30;3.38;;;;;;;;;;4914183;29;20043;-75
2022/12/03 14:45:03;;;;;;;3.75;2.80;;;;;;;;;;4913425;29;20024;-76
2022/12/03 14:47:30;;;;;;;5.22;3.10;;;;;;;;;;4913429;29;20157;-77